< < Back
Terminal Aerodrome Forecast


Current Version              Previous Versions:   1  2  3  4  5  6  7  8  9  

Terminal Aerodrome Forecast

592
FTUS42 KFFC 220657 AAA
TAFFTY
TAF AMD
KFTY 220657Z 2207/2306 08005KT 2SM -DZ BR OVC007
     FM221000 08006KT 2SM -DZ BR OVC003
     FM221600 09008KT 5SM -DZ BR OVC007
     FM230000 09011KT 5SM -DZ BR OVC004=

Latest METAR

461
SAUS70 KWBC 220700 RRA
MTRFTY
METAR KFTY 220653Z 07004KT 2 1/2SM BR OVC008 08/07 A3007 RMK AO2
RAB01E15 CIG 004V010 SLP182 P0000 T00830072


USA.gov is the U.S. government's official web portal to all federal, state and local government web resources and services.